createdAt,value
2019-02-04T00:00:36.729Z,1.60
2019-02-04T00:03:08.031Z,1.40
2019-02-04T00:05:36.661Z,1.50
2019-02-04T00:08:05.578Z,1.40
2019-02-04T00:10:34.372Z,1.40
2019-02-04T00:13:03.513Z,1.40
2019-02-04T00:15:32.221Z,1.30
2019-02-04T00:18:00.884Z,1.20
2019-02-04T00:20:29.424Z,1.10
2019-02-04T00:22:58.023Z,1.10
2019-02-04T00:25:26.576Z,1.20
2019-02-04T00:27:55.528Z,1.20
2019-02-04T00:30:26.120Z,1.30
2019-02-04T00:32:54.876Z,1.20
2019-02-04T00:35:23.424Z,1.20
2019-02-04T00:37:52.012Z,1.10
2019-02-04T00:40:23.100Z,1.10
2019-02-04T00:42:51.691Z,1.00
2019-02-04T00:45:20.249Z,1.00
2019-02-04T00:47:48.975Z,1.00
2019-02-04T00:50:19.673Z,1.00
2019-02-04T00:52:48.327Z,1.10
2019-02-04T00:55:17.021Z,1.00
2019-02-04T00:57:45.810Z,0.90
2019-02-04T01:00:23.463Z,1.00
2019-02-04T01:02:52.181Z,1.00
2019-02-04T01:05:21.177Z,0.90
2019-02-04T01:07:49.908Z,0.80
2019-02-04T01:10:21.365Z,0.70
2019-02-04T01:12:50.061Z,0.60
2019-02-04T01:15:18.779Z,0.70
2019-02-04T01:17:47.408Z,0.70
2019-02-04T01:20:21.647Z,0.60
2019-02-04T01:22:50.336Z,0.50
2019-02-04T01:25:19.166Z,0.60
2019-02-04T01:27:47.855Z,0.50
2019-02-04T01:30:21.279Z,0.40
2019-02-04T01:32:50.080Z,0.50
2019-02-04T01:35:19.000Z,0.30
2019-02-04T01:37:47.823Z,0.30
2019-02-04T01:40:18.848Z,0.50
2019-02-04T01:42:47.477Z,0.50
2019-02-04T01:45:16.135Z,0.50
2019-02-04T01:47:44.757Z,0.50
2019-02-04T01:50:15.675Z,0.50
2019-02-04T01:52:44.304Z,0.50
2019-02-04T01:55:14.428Z,0.40
2019-02-04T01:57:43.720Z,0.30
2019-02-04T02:00:17.743Z,0.40
2019-02-04T02:02:46.368Z,0.30
2019-02-04T02:05:15.587Z,0.20
2019-02-04T02:07:44.139Z,0.20
2019-02-04T02:10:18.331Z,0.20
2019-02-04T02:12:47.031Z,0.10
2019-02-04T02:15:15.759Z,0.10
2019-02-04T02:17:44.307Z,0.20
2019-02-04T02:20:16.228Z,0.20
2019-02-04T02:22:44.780Z,0.20
2019-02-04T02:25:13.505Z,0.10
2019-02-04T02:27:42.126Z,0.20
2019-02-04T02:30:13.915Z,0.10
2019-02-04T02:32:42.668Z,0.10
2019-02-04T02:35:11.588Z,0.10
2019-02-04T02:37:40.217Z,0.20
2019-02-04T02:40:11.878Z,0.20
2019-02-04T02:42:40.431Z,0.20
2019-02-04T02:45:09.452Z,0.20
2019-02-04T02:47:38.823Z,0.20
2019-02-04T02:50:10.529Z,0.20
2019-02-04T02:52:39.156Z,0.10
2019-02-04T02:55:11.084Z,0.10
2019-02-04T02:57:39.775Z,0.10
2019-02-04T03:00:11.608Z,-0.10
2019-02-04T03:02:40.200Z,-0.20
2019-02-04T03:05:11.994Z,-0.10
2019-02-04T03:07:40.653Z,-0.10
2019-02-04T03:10:12.050Z,-0.10
2019-02-04T03:12:40.641Z,-0.20
2019-02-04T03:15:11.837Z,-0.30
2019-02-04T03:17:51.508Z,-0.40
2019-02-04T03:20:12.344Z,-0.30
2019-02-04T03:22:40.955Z,-0.30
2019-02-04T03:25:11.848Z,-0.20
2019-02-04T03:27:40.702Z,-0.30
2019-02-04T03:30:18.397Z,-0.30
2019-02-04T03:32:47.005Z,-0.30
2019-02-04T03:35:15.608Z,-0.30
2019-02-04T03:37:44.295Z,-0.30
2019-02-04T03:40:27.869Z,-0.30
2019-02-04T03:42:56.518Z,-0.30
2019-02-04T03:45:25.148Z,-0.30
2019-02-04T03:48:04.571Z,-0.40
2019-02-04T03:50:24.316Z,-0.40
2019-02-04T03:52:53.279Z,-0.40
2019-02-04T03:55:21.968Z,-0.40
2019-02-04T03:57:50.620Z,-0.50
2019-02-04T04:00:21.615Z,-0.60
2019-02-04T04:02:50.549Z,-0.50
2019-02-04T04:05:19.345Z,-0.50
2019-02-04T04:07:48.045Z,-0.50
2019-02-04T04:10:16.739Z,-0.70
2019-02-04T04:12:45.393Z,-0.70
2019-02-04T04:15:15.481Z,-0.80
2019-02-04T04:17:44.207Z,-0.70
2019-02-04T04:20:15.373Z,-0.70
2019-02-04T04:22:44.020Z,-0.60
2019-02-04T04:25:17.488Z,-0.70
2019-02-04T04:27:46.513Z,-0.70
2019-02-04T04:30:17.675Z,-0.80
2019-02-04T04:32:46.329Z,-0.80
2019-02-04T04:35:15.427Z,-0.70
2019-02-04T04:37:44.020Z,-0.70
2019-02-04T04:40:15.003Z,-0.70
2019-02-04T04:42:43.929Z,-0.70
2019-02-04T04:45:20.885Z,-0.70
2019-02-04T04:47:49.776Z,-0.70
2019-02-04T04:50:18.776Z,-0.70
2019-02-04T04:52:47.365Z,-0.70
2019-02-04T04:55:26.955Z,-0.80
2019-02-04T04:57:56.005Z,-0.90
2019-02-04T05:00:27.776Z,-0.80
2019-02-04T05:02:56.431Z,-0.70
2019-02-04T05:05:25.124Z,-0.80
2019-02-04T05:07:53.947Z,-0.70
2019-02-04T05:10:22.936Z,-0.70
2019-02-04T05:12:51.629Z,-0.70
2019-02-04T05:15:25.499Z,-0.70
2019-02-04T05:17:54.054Z,-0.70
2019-02-04T05:20:22.979Z,-0.80
2019-02-04T05:22:51.678Z,-0.80
2019-02-04T05:25:20.427Z,-0.80
2019-02-04T05:27:49.157Z,-1.00
2019-02-04T05:30:19.484Z,-0.90
2019-02-04T05:32:48.049Z,-0.90
2019-02-04T05:35:16.703Z,-0.90
2019-02-04T05:37:45.266Z,-0.90
2019-02-04T05:40:15.582Z,-1.00
2019-02-04T05:42:44.505Z,-1.10
2019-02-04T05:45:17.961Z,-1.20
2019-02-04T05:47:46.522Z,-1.20
2019-02-04T05:50:17.919Z,-1.30
2019-02-04T05:52:46.921Z,-1.30
2019-02-04T05:55:16.948Z,-1.20
2019-02-04T05:57:45.644Z,-1.10
2019-02-04T06:00:21.649Z,-1.10
2019-02-04T06:02:50.215Z,-1.10
2019-02-04T06:05:19.347Z,-1.10
2019-02-04T06:07:48.045Z,-1.20
2019-02-04T06:10:17.009Z,-1.10
2019-02-04T06:12:45.576Z,-1.00
2019-02-04T06:15:15.900Z,-1.00
2019-02-04T06:17:44.523Z,-1.10
2019-02-04T06:20:22.427Z,-1.10
2019-02-04T06:22:51.290Z,-1.30
2019-02-04T06:25:19.885Z,-1.30
2019-02-04T06:27:48.695Z,-1.30
2019-02-04T06:30:18.714Z,-1.30
2019-02-04T06:32:47.400Z,-1.20
2019-02-04T06:35:17.227Z,-1.20
2019-02-04T06:37:46.846Z,-1.10
2019-02-04T06:40:17.077Z,-1.00
2019-02-04T06:42:47.845Z,-1.20
2019-02-04T06:45:18.008Z,-1.20
2019-02-04T06:47:50.336Z,-1.20
2019-02-04T06:50:33.157Z,-1.20
2019-02-04T06:53:20.008Z,-1.30
2019-02-04T06:56:03.590Z,-1.30
2019-02-04T06:58:36.838Z,-1.30
2019-02-04T07:01:44.095Z,-1.40
2019-02-04T07:03:59.461Z,-1.50
2019-02-04T07:06:33.194Z,-1.40
2019-02-04T07:09:01.936Z,-1.30
2019-02-04T07:11:33.307Z,-1.30
2019-02-04T07:14:12.398Z,-1.30
2019-02-04T07:16:51.481Z,-1.40
2019-02-04T07:19:28.968Z,-1.40
2019-02-04T07:22:05.356Z,-1.20
2019-02-04T07:24:43.300Z,-1.10
2019-02-04T07:27:17.997Z,-1.00
2019-02-04T07:29:55.982Z,-1.00
2019-02-04T07:32:35.267Z,-1.10
2019-02-04T07:35:12.385Z,-1.10
2019-02-04T07:37:53.217Z,-0.90
2019-02-04T07:40:56.302Z,-0.70
2019-02-04T07:43:16.393Z,-0.60
2019-02-04T07:45:49.955Z,-0.60
2019-02-04T07:48:21.943Z,-0.50
2019-02-04T07:51:04.496Z,-0.50
2019-02-04T07:53:35.771Z,-0.40
2019-02-04T07:56:12.308Z,-0.40
2019-02-04T08:01:34.571Z,-0.20
2019-02-04T08:04:08.168Z,-0.10
2019-02-04T08:06:40.842Z,-0.10
2019-02-04T08:09:13.103Z,-0.20
2019-02-04T08:11:54.255Z,-0.10
2019-02-04T08:14:32.838Z,-0.10
2019-02-04T08:17:05.035Z,0.00
2019-02-04T08:19:47.330Z,0.10
2019-02-04T08:22:15.554Z,0.30
2019-02-04T08:24:46.916Z,0.30
2019-02-04T08:27:15.683Z,0.40
2019-02-04T08:29:44.328Z,0.50
2019-02-04T08:32:12.896Z,0.60
2019-02-04T08:34:43.105Z,0.60
2019-02-04T08:37:14.257Z,0.60
2019-02-04T08:39:43.028Z,0.60
2019-02-04T08:42:11.616Z,0.60
2019-02-04T08:44:40.180Z,0.70
2019-02-04T08:47:08.906Z,0.80
2019-02-04T08:49:37.466Z,1.00
2019-02-04T08:52:06.334Z,1.20
2019-02-04T08:54:36.456Z,1.20
2019-02-04T08:57:16.255Z,1.20
2019-02-04T08:59:44.845Z,1.30
2019-02-04T09:02:13.492Z,1.40
2019-02-04T09:04:42.150Z,1.50
2019-02-04T09:07:10.716Z,1.60
2019-02-04T09:09:39.311Z,1.60
2019-02-04T09:12:08.100Z,1.60
2019-02-04T09:14:39.079Z,1.80
2019-02-04T09:17:10.934Z,1.90
2019-02-04T09:19:42.046Z,2.00
2019-02-04T09:22:14.375Z,2.00
2019-02-04T09:24:46.338Z,2.10
2019-02-04T09:27:16.587Z,2.20
2019-02-04T09:29:47.499Z,2.20
2019-02-04T09:32:18.921Z,2.20
2019-02-04T09:34:48.978Z,2.40
2019-02-04T09:37:17.655Z,2.60
2019-02-04T09:39:46.551Z,2.60
2019-02-04T09:42:15.273Z,2.60
2019-02-04T09:44:43.867Z,2.70
2019-02-04T09:47:12.869Z,2.80
2019-02-04T09:49:41.761Z,2.90
2019-02-04T09:52:10.344Z,2.90
2019-02-04T09:54:38.940Z,3.00
2019-02-04T09:57:07.521Z,3.10
2019-02-04T09:59:36.189Z,3.20
2019-02-04T10:02:06.702Z,3.30
2019-02-04T10:04:35.678Z,3.20
2019-02-04T10:07:04.426Z,3.10
2019-02-04T10:09:32.984Z,3.10
2019-02-04T10:12:01.559Z,3.20
2019-02-04T10:14:30.148Z,3.30
2019-02-04T10:16:58.712Z,3.50
2019-02-04T10:19:27.496Z,3.60
2019-02-04T10:21:56.120Z,3.70
2019-02-04T10:24:24.653Z,3.70
2019-02-04T10:26:53.270Z,3.60
2019-02-04T10:29:21.864Z,3.60
2019-02-04T10:31:50.419Z,3.50
2019-02-04T10:34:19.114Z,3.60
2019-02-04T10:36:47.648Z,3.70
2019-02-04T10:39:16.271Z,3.90
2019-02-04T10:41:44.888Z,3.90
2019-02-04T10:44:13.501Z,4.10
2019-02-04T10:46:42.099Z,4.10
2019-02-04T10:49:10.751Z,4.00
2019-02-04T10:51:39.323Z,4.20
2019-02-04T10:54:07.997Z,4.10
2019-02-04T10:56:36.661Z,4.20
2019-02-04T10:59:05.468Z,4.30
2019-02-04T11:01:34.135Z,4.40
2019-02-04T11:04:02.685Z,4.40
2019-02-04T11:06:31.658Z,4.40
2019-02-04T11:09:00.527Z,4.40
2019-02-04T11:11:29.180Z,4.50
2019-02-04T11:13:57.862Z,4.70
2019-02-04T11:16:26.516Z,4.80
2019-02-04T11:18:55.147Z,5.00
2019-02-04T11:21:24.141Z,5.10
2019-02-04T11:23:52.811Z,5.20
2019-02-04T11:26:21.425Z,5.40
2019-02-04T11:28:50.014Z,5.50
2019-02-04T11:31:18.580Z,5.50
2019-02-04T11:33:47.208Z,5.60
2019-02-04T11:36:15.803Z,5.70
2019-02-04T11:38:44.510Z,5.90
2019-02-04T11:41:13.305Z,6.00
2019-02-04T11:43:44.834Z,6.00
2019-02-04T11:46:14.279Z,6.00
2019-02-04T11:48:42.897Z,6.20
2019-02-04T11:51:11.919Z,6.30
2019-02-04T11:53:40.547Z,6.40
2019-02-04T11:56:09.136Z,6.50
2019-02-04T11:58:37.769Z,6.50
2019-02-04T12:01:11.502Z,6.50
2019-02-04T12:03:41.183Z,6.50
2019-02-04T12:06:10.591Z,6.50
2019-02-04T12:08:39.304Z,6.50
2019-02-04T12:11:08.201Z,6.50
2019-02-04T12:13:37.737Z,6.50
2019-02-04T12:16:07.389Z,6.50
2019-02-04T12:18:36.132Z,6.50
2019-02-04T12:21:04.997Z,6.50
2019-02-04T12:23:33.691Z,6.50
2019-02-04T12:26:02.475Z,6.30
2019-02-04T12:28:31.038Z,6.30
2019-02-04T12:30:59.658Z,6.30
2019-02-04T12:33:28.248Z,6.40
2019-02-04T12:35:57.275Z,6.60
2019-02-04T12:38:25.928Z,6.50
2019-02-04T12:40:54.552Z,6.60
2019-02-04T12:43:23.408Z,6.60
2019-02-04T12:45:52.167Z,6.60
2019-02-04T12:48:20.820Z,6.70
2019-02-04T12:50:49.379Z,6.70
2019-02-04T12:53:18.061Z,6.70
2019-02-04T12:55:46.592Z,6.80
2019-02-04T12:58:15.175Z,6.70
2019-02-04T13:00:43.948Z,6.80
2019-02-04T13:03:12.535Z,6.80
2019-02-04T13:05:44.067Z,6.70
2019-02-04T13:08:13.137Z,6.70
2019-02-04T13:10:44.610Z,6.70
2019-02-04T13:13:15.431Z,6.60
2019-02-04T13:15:44.328Z,6.70
2019-02-04T13:18:13.064Z,6.70
2019-02-04T13:20:42.087Z,6.70
2019-02-04T13:23:11.073Z,6.60
2019-02-04T13:25:39.699Z,6.40
2019-02-04T13:28:12.599Z,6.30
2019-02-04T13:30:40.960Z,6.40
2019-02-04T13:33:09.546Z,6.40
2019-02-04T13:35:38.400Z,6.40
2019-02-04T13:38:07.086Z,6.50
2019-02-04T13:40:35.816Z,6.60
2019-02-04T13:43:04.929Z,6.70
2019-02-04T13:45:33.758Z,6.80
2019-02-04T13:48:02.456Z,6.80
2019-02-04T13:50:31.345Z,6.70
2019-02-04T13:52:59.968Z,6.70
2019-02-04T13:55:39.540Z,6.60
2019-02-04T13:58:08.327Z,6.50
2019-02-04T14:00:37.444Z,6.40
2019-02-04T14:03:07.144Z,6.40
2019-02-04T14:05:35.971Z,6.40
2019-02-04T14:08:04.957Z,6.10
2019-02-04T14:10:35.792Z,6.20
2019-02-04T14:13:05.482Z,6.20
2019-02-04T14:15:35.723Z,6.10
2019-02-04T14:18:05.595Z,6.10
2019-02-04T14:20:34.392Z,6.10
2019-02-04T14:23:03.077Z,6.20
2019-02-04T14:25:31.802Z,6.30
2019-02-04T14:28:03.357Z,6.20
2019-02-04T14:30:33.552Z,6.20
2019-02-04T14:33:02.346Z,6.10
2019-02-04T14:35:31.069Z,6.10
2019-02-04T14:37:59.759Z,6.00
2019-02-04T14:40:28.472Z,6.00
2019-02-04T14:43:06.044Z,5.90
2019-02-04T14:45:57.060Z,6.00
2019-02-04T14:48:43.291Z,5.90
2019-02-04T14:51:32.888Z,5.80
2019-02-04T14:54:16.372Z,5.80
2019-02-04T14:57:04.165Z,5.80
2019-02-04T14:59:33.352Z,5.80
2019-02-04T15:02:13.466Z,5.90
2019-02-04T15:04:50.900Z,5.90
2019-02-04T15:07:34.416Z,5.90
2019-02-04T15:10:14.832Z,5.80
2019-02-04T15:12:58.469Z,5.70
2019-02-04T15:15:30.094Z,5.80
2019-02-04T15:18:07.689Z,5.70
2019-02-04T15:21:14.259Z,5.70
2019-02-04T15:23:48.789Z,5.70
2019-02-04T15:26:36.535Z,5.60
2019-02-04T15:29:22.747Z,5.60
2019-02-04T15:32:15.140Z,5.50
2019-02-04T15:35:04.625Z,5.60
2019-02-04T15:37:34.666Z,5.50
2019-02-04T15:40:08.728Z,5.60
2019-02-04T15:42:56.896Z,5.50
2019-02-04T15:45:37.312Z,5.40
2019-02-04T15:48:06.028Z,5.40
2019-02-04T15:50:43.411Z,5.50
2019-02-04T15:53:11.989Z,5.40
2019-02-04T15:55:40.612Z,5.30
2019-02-04T15:58:09.334Z,5.20
2019-02-04T16:00:37.890Z,5.20
2019-02-04T16:03:06.745Z,5.10
2019-02-04T16:05:35.302Z,5.10
2019-02-04T16:08:03.961Z,5.10
2019-02-04T16:10:32.507Z,5.10
2019-02-04T16:13:01.099Z,5.00
2019-02-04T16:15:29.792Z,4.90
2019-02-04T16:17:58.741Z,4.90
2019-02-04T16:20:27.377Z,4.90
2019-02-04T16:22:58.780Z,4.90
2019-02-04T16:25:26.293Z,4.80
2019-02-04T16:27:54.877Z,4.70
2019-02-04T16:30:23.555Z,4.60
2019-02-04T16:32:52.993Z,4.70
2019-02-04T16:35:21.572Z,4.60
2019-02-04T16:37:50.470Z,4.40
2019-02-04T16:40:22.900Z,4.40
2019-02-04T16:42:51.523Z,4.40
2019-02-04T16:45:22.143Z,4.40
2019-02-04T16:47:51.300Z,4.30
2019-02-04T16:50:22.092Z,4.40
2019-02-04T16:52:50.795Z,4.30
2019-02-04T16:55:19.477Z,4.20
2019-02-04T16:57:48.032Z,4.10
2019-02-04T17:00:25.149Z,3.90
2019-02-04T17:02:53.703Z,3.80
2019-02-04T17:05:23.788Z,3.80
2019-02-04T17:07:52.338Z,3.70
2019-02-04T17:10:24.092Z,3.60
2019-02-04T17:12:52.979Z,3.50
2019-02-04T17:15:21.736Z,3.50
2019-02-04T17:17:50.423Z,3.40
2019-02-04T17:20:24.859Z,3.40
2019-02-04T17:22:53.424Z,3.30
2019-02-04T17:25:22.075Z,3.30
2019-02-04T17:27:50.764Z,3.20
2019-02-04T17:30:22.088Z,3.10
2019-02-04T17:32:50.884Z,3.00
2019-02-04T17:35:19.604Z,2.90
2019-02-04T17:37:48.160Z,3.00
2019-02-04T17:40:19.291Z,3.00
2019-02-04T17:42:48.021Z,2.90
2019-02-04T17:45:17.444Z,2.90
2019-02-04T17:47:47.442Z,2.70
2019-02-04T17:50:18.354Z,2.80
2019-02-04T17:52:47.045Z,2.80
2019-02-04T17:55:17.803Z,2.80
2019-02-04T17:57:46.491Z,2.70
2019-02-04T18:00:40.241Z,2.70
2019-02-04T18:03:09.136Z,2.70
2019-02-04T18:05:37.874Z,2.60
2019-02-04T18:08:06.869Z,2.50
2019-02-04T18:10:35.524Z,2.40
2019-02-04T18:13:04.251Z,2.40
2019-02-04T18:15:32.995Z,2.50
2019-02-04T18:18:01.552Z,2.50
2019-02-04T18:20:30.299Z,2.60
2019-02-04T18:22:59.011Z,2.60
2019-02-04T18:25:27.965Z,2.60
2019-02-04T18:27:56.596Z,2.50
2019-02-04T18:30:25.997Z,2.30
2019-02-04T18:32:54.721Z,2.40
2019-02-04T18:35:23.717Z,2.50
2019-02-04T18:37:52.368Z,2.40
2019-02-04T18:40:22.475Z,2.40
2019-02-04T18:42:51.497Z,2.40
2019-02-04T18:45:25.411Z,2.40
2019-02-04T18:47:54.067Z,2.40
2019-02-04T18:50:23.865Z,2.30
2019-02-04T18:52:52.520Z,2.40
2019-02-04T18:55:33.991Z,2.40
2019-02-04T18:58:02.670Z,2.40
2019-02-04T19:00:32.763Z,2.40
2019-02-04T19:03:03.954Z,2.20
2019-02-04T19:05:32.509Z,2.30
2019-02-04T19:08:01.169Z,2.30
2019-02-04T19:10:29.880Z,2.30
2019-02-04T19:12:58.636Z,2.30
2019-02-04T19:15:30.112Z,2.10
2019-02-04T19:18:02.146Z,2.10
2019-02-04T19:20:30.709Z,2.10
2019-02-04T19:22:59.289Z,2.10
2019-02-04T19:25:27.916Z,2.10
2019-02-04T19:27:56.496Z,2.20
2019-02-04T19:30:43.083Z,2.20
2019-02-04T19:33:11.664Z,2.20
2019-02-04T19:35:40.220Z,2.20
2019-02-04T19:38:08.947Z,2.20
2019-02-04T19:40:37.503Z,2.20
2019-02-04T19:43:06.161Z,2.10
2019-02-04T19:45:34.987Z,2.20
2019-02-04T19:48:03.585Z,2.20
2019-02-04T19:50:37.052Z,2.20
2019-02-04T19:53:06.093Z,2.20
2019-02-04T19:55:34.645Z,2.20
2019-02-04T19:58:03.377Z,2.10
2019-02-04T20:00:32.129Z,2.00
2019-02-04T20:03:00.790Z,2.00
2019-02-04T20:05:33.207Z,1.90
2019-02-04T20:08:01.865Z,1.90
2019-02-04T20:10:32.996Z,1.90
2019-02-04T20:13:02.550Z,1.80
2019-02-04T20:15:32.144Z,1.70
2019-02-04T20:18:01.052Z,1.70
2019-02-04T20:20:30.065Z,1.60
2019-02-04T20:22:58.840Z,1.60
2019-02-04T20:25:34.384Z,1.70
2019-02-04T20:28:05.305Z,1.70
2019-02-04T20:30:45.722Z,1.70
2019-02-04T20:33:10.665Z,1.70
2019-02-04T20:35:39.506Z,1.60
2019-02-04T20:38:09.161Z,1.60
2019-02-04T20:40:37.791Z,1.70
2019-02-04T20:43:09.225Z,1.80
2019-02-04T20:45:37.883Z,1.80
2019-02-04T20:48:08.975Z,1.80
2019-02-04T20:50:46.547Z,1.70
2019-02-04T20:53:15.356Z,1.70
2019-02-04T20:55:44.193Z,1.90
2019-02-04T20:58:12.885Z,1.90
2019-02-04T21:00:41.482Z,1.90
2019-02-04T21:03:10.035Z,1.90
2019-02-04T21:05:38.626Z,1.90
2019-02-04T21:08:07.525Z,1.90
2019-02-04T21:10:36.419Z,1.80
2019-02-04T21:13:06.581Z,1.80
2019-02-04T21:15:35.304Z,1.80
2019-02-04T21:18:04.496Z,1.80
2019-02-04T21:20:33.156Z,1.70
2019-02-04T21:23:01.704Z,1.60
2019-02-04T21:25:30.595Z,1.60
2019-02-04T21:27:59.217Z,1.60
2019-02-04T21:30:36.064Z,1.70
2019-02-04T21:33:05.052Z,1.70
2019-02-04T21:35:33.706Z,1.70
2019-02-04T21:38:02.332Z,1.70
2019-02-04T21:40:31.172Z,1.70
2019-02-04T21:42:59.730Z,1.80
2019-02-04T21:45:28.552Z,1.80
2019-02-04T21:47:57.248Z,1.80
2019-02-04T21:50:27.799Z,1.80
2019-02-04T21:52:56.496Z,1.80
2019-02-04T21:55:26.019Z,1.90
2019-02-04T21:57:54.952Z,1.90
2019-02-04T22:00:26.116Z,1.80
2019-02-04T22:02:54.701Z,1.70
2019-02-04T22:05:28.221Z,1.70
2019-02-04T22:07:56.954Z,1.80
2019-02-04T22:10:30.105Z,1.80
2019-02-04T22:12:59.524Z,1.70
2019-02-04T22:15:28.152Z,1.60
2019-02-04T22:17:56.875Z,1.70
2019-02-04T22:20:25.577Z,1.70
2019-02-04T22:22:54.240Z,1.70
2019-02-04T22:25:24.335Z,1.90
2019-02-04T22:27:52.997Z,1.90
2019-02-04T22:30:24.061Z,1.90
2019-02-04T22:32:52.705Z,2.00
2019-02-04T22:35:21.338Z,2.10
2019-02-04T22:37:50.087Z,2.10
2019-02-04T22:40:24.257Z,2.10
2019-02-04T22:42:53.079Z,2.10
2019-02-04T22:45:21.848Z,2.10
2019-02-04T22:47:50.509Z,2.00
2019-02-04T22:50:21.566Z,2.00
2019-02-04T22:52:50.424Z,2.00
2019-02-04T22:55:31.026Z,2.00
2019-02-04T22:57:49.884Z,2.10
2019-02-04T23:00:45.085Z,2.10
2019-02-04T23:03:14.316Z,2.10
2019-02-04T23:05:42.931Z,2.20
2019-02-04T23:08:11.595Z,2.00
2019-02-04T23:10:40.296Z,2.00
2019-02-04T23:13:08.960Z,2.00
2019-02-04T23:15:37.517Z,2.10
2019-02-04T23:18:06.444Z,2.00
2019-02-04T23:20:35.075Z,2.10
2019-02-04T23:23:04.788Z,2.10
2019-02-04T23:25:43.042Z,2.20
2019-02-04T23:28:04.115Z,2.20
2019-02-04T23:30:32.747Z,2.30
2019-02-04T23:33:01.765Z,2.40
2019-02-04T23:35:30.257Z,2.40
2019-02-04T23:37:58.893Z,2.30
2019-02-04T23:40:27.484Z,2.20
2019-02-04T23:42:56.110Z,2.20
2019-02-04T23:45:24.765Z,2.20
2019-02-04T23:47:53.465Z,2.20
2019-02-04T23:50:22.117Z,2.30
2019-02-04T23:52:50.676Z,2.10
2019-02-04T23:55:19.337Z,2.20
2019-02-04T23:57:47.900Z,2.30
